sensor_id;sensor_type;location;lat;lon;timestamp;P1;durP1;ratioP1;P2;durP2;ratioP2
70576;SDS011;58138;43.138;24.702;2023-04-15T00:00:36;12.52;;;8.32;;
70576;SDS011;58138;43.138;24.702;2023-04-15T00:03:02;12.38;;;8.30;;
70576;SDS011;58138;43.138;24.702;2023-04-15T00:05:29;9.95;;;7.78;;
70576;SDS011;58138;43.138;24.702;2023-04-15T00:07:55;10.68;;;7.25;;
70576;SDS011;58138;43.138;24.702;2023-04-15T00:10:21;11.60;;;7.20;;
70576;SDS011;58138;43.138;24.702;2023-04-15T00:12:47;10.27;;;6.85;;
70576;SDS011;58138;43.138;24.702;2023-04-15T00:15:12;12.63;;;7.22;;
70576;SDS011;58138;43.138;24.702;2023-04-15T00:17:38;11.80;;;7.57;;
70576;SDS011;58138;43.138;24.702;2023-04-15T00:20:04;12.05;;;7.93;;
70576;SDS011;58138;43.138;24.702;2023-04-15T00:22:30;10.70;;;7.45;;
70576;SDS011;58138;43.138;24.702;2023-04-15T00:24:56;9.35;;;6.40;;
70576;SDS011;58138;43.138;24.702;2023-04-15T00:27:22;10.20;;;6.80;;
70576;SDS011;58138;43.138;24.702;2023-04-15T00:29:48;8.45;;;6.30;;
70576;SDS011;58138;43.138;24.702;2023-04-15T00:32:14;11.80;;;6.93;;
70576;SDS011;58138;43.138;24.702;2023-04-15T00:34:40;11.23;;;6.05;;
70576;SDS011;58138;43.138;24.702;2023-04-15T00:37:06;12.93;;;6.43;;
70576;SDS011;58138;43.138;24.702;2023-04-15T00:39:31;7.60;;;5.45;;
70576;SDS011;58138;43.138;24.702;2023-04-15T00:41:57;13.52;;;7.78;;
70576;SDS011;58138;43.138;24.702;2023-04-15T00:44:22;7.75;;;5.60;;
70576;SDS011;58138;43.138;24.702;2023-04-15T00:46:49;7.82;;;4.38;;
70576;SDS011;58138;43.138;24.702;2023-04-15T00:49:15;7.53;;;4.03;;
70576;SDS011;58138;43.138;24.702;2023-04-15T00:51:42;12.68;;;6.38;;
70576;SDS011;58138;43.138;24.702;2023-04-15T00:54:08;9.60;;;5.72;;
70576;SDS011;58138;43.138;24.702;2023-04-15T00:56:35;11.20;;;7.03;;
70576;SDS011;58138;43.138;24.702;2023-04-15T00:59:02;13.23;;;6.88;;
70576;SDS011;58138;43.138;24.702;2023-04-15T01:01:27;12.18;;;6.38;;
70576;SDS011;58138;43.138;24.702;2023-04-15T01:03:56;9.98;;;5.88;;
70576;SDS011;58138;43.138;24.702;2023-04-15T01:06:22;9.75;;;6.60;;
70576;SDS011;58138;43.138;24.702;2023-04-15T01:08:48;9.02;;;6.30;;
70576;SDS011;58138;43.138;24.702;2023-04-15T01:11:16;10.02;;;5.75;;
70576;SDS011;58138;43.138;24.702;2023-04-15T01:13:41;8.52;;;5.97;;
70576;SDS011;58138;43.138;24.702;2023-04-15T01:16:07;11.18;;;5.78;;
70576;SDS011;58138;43.138;24.702;2023-04-15T01:18:33;11.00;;;6.20;;
70576;SDS011;58138;43.138;24.702;2023-04-15T01:21:03;12.88;;;7.15;;
70576;SDS011;58138;43.138;24.702;2023-04-15T01:23:29;11.73;;;6.78;;
70576;SDS011;58138;43.138;24.702;2023-04-15T01:25:56;13.15;;;6.50;;
70576;SDS011;58138;43.138;24.702;2023-04-15T01:28:22;10.98;;;6.75;;
70576;SDS011;58138;43.138;24.702;2023-04-15T01:30:48;11.18;;;7.15;;
70576;SDS011;58138;43.138;24.702;2023-04-15T01:33:13;9.73;;;6.90;;
70576;SDS011;58138;43.138;24.702;2023-04-15T01:35:40;11.60;;;7.13;;
70576;SDS011;58138;43.138;24.702;2023-04-15T01:38:08;9.15;;;6.05;;
70576;SDS011;58138;43.138;24.702;2023-04-15T01:40:34;7.70;;;4.85;;
70576;SDS011;58138;43.138;24.702;2023-04-15T01:43:00;11.10;;;5.50;;
70576;SDS011;58138;43.138;24.702;2023-04-15T01:45:26;6.10;;;5.13;;
70576;SDS011;58138;43.138;24.702;2023-04-15T01:47:52;8.35;;;5.30;;
70576;SDS011;58138;43.138;24.702;2023-04-15T01:50:18;11.85;;;5.20;;
70576;SDS011;58138;43.138;24.702;2023-04-15T01:52:44;7.28;;;4.60;;
70576;SDS011;58138;43.138;24.702;2023-04-15T01:55:11;6.45;;;4.82;;
70576;SDS011;58138;43.138;24.702;2023-04-15T01:57:38;6.18;;;4.65;;
70576;SDS011;58138;43.138;24.702;2023-04-15T02:00:04;8.52;;;4.78;;
70576;SDS011;58138;43.138;24.702;2023-04-15T02:02:31;5.80;;;4.45;;
70576;SDS011;58138;43.138;24.702;2023-04-15T02:04:57;8.15;;;4.70;;
70576;SDS011;58138;43.138;24.702;2023-04-15T02:07:23;8.35;;;4.57;;
70576;SDS011;58138;43.138;24.702;2023-04-15T02:09:49;8.93;;;3.80;;
70576;SDS011;58138;43.138;24.702;2023-04-15T02:12:15;8.27;;;4.88;;
70576;SDS011;58138;43.138;24.702;2023-04-15T02:14:40;20.55;;;10.52;;
70576;SDS011;58138;43.138;24.702;2023-04-15T02:17:06;11.30;;;5.90;;
70576;SDS011;58138;43.138;24.702;2023-04-15T02:19:33;10.00;;;4.90;;
70576;SDS011;58138;43.138;24.702;2023-04-15T02:21:59;8.63;;;5.28;;
70576;SDS011;58138;43.138;24.702;2023-04-15T02:24:26;7.50;;;5.22;;
70576;SDS011;58138;43.138;24.702;2023-04-15T02:26:52;10.55;;;5.35;;
70576;SDS011;58138;43.138;24.702;2023-04-15T02:29:17;10.95;;;6.30;;
70576;SDS011;58138;43.138;24.702;2023-04-15T02:31:43;8.82;;;6.00;;
70576;SDS011;58138;43.138;24.702;2023-04-15T02:34:09;7.50;;;5.65;;
70576;SDS011;58138;43.138;24.702;2023-04-15T02:36:35;7.80;;;4.88;;
70576;SDS011;58138;43.138;24.702;2023-04-15T02:39:01;5.95;;;3.75;;
70576;SDS011;58138;43.138;24.702;2023-04-15T02:41:28;6.68;;;4.43;;
70576;SDS011;58138;43.138;24.702;2023-04-15T02:43:54;5.57;;;3.63;;
70576;SDS011;58138;43.138;24.702;2023-04-15T02:46:19;7.90;;;4.53;;
70576;SDS011;58138;43.138;24.702;2023-04-15T02:48:46;6.57;;;4.82;;
70576;SDS011;58138;43.138;24.702;2023-04-15T02:51:13;8.90;;;5.30;;
70576;SDS011;58138;43.138;24.702;2023-04-15T02:53:40;9.75;;;5.63;;
70576;SDS011;58138;43.138;24.702;2023-04-15T02:56:06;4.90;;;3.35;;
70576;SDS011;58138;43.138;24.702;2023-04-15T02:58:32;7.50;;;3.70;;
70576;SDS011;58138;43.138;24.702;2023-04-15T03:00:58;5.30;;;3.03;;
70576;SDS011;58138;43.138;24.702;2023-04-15T03:03:24;5.65;;;3.05;;
70576;SDS011;58138;43.138;24.702;2023-04-15T03:05:52;6.13;;;3.25;;
70576;SDS011;58138;43.138;24.702;2023-04-15T03:08:17;3.03;;;2.33;;
70576;SDS011;58138;43.138;24.702;2023-04-15T03:10:43;4.75;;;2.50;;
70576;SDS011;58138;43.138;24.702;2023-04-15T03:13:08;2.58;;;1.73;;
70576;SDS011;58138;43.138;24.702;2023-04-15T03:15:34;2.28;;;1.08;;
70576;SDS011;58138;43.138;24.702;2023-04-15T03:18:00;1.23;;;1.13;;
70576;SDS011;58138;43.138;24.702;2023-04-15T03:20:25;2.33;;;1.23;;
70576;SDS011;58138;43.138;24.702;2023-04-15T03:22:51;2.67;;;1.13;;
70576;SDS011;58138;43.138;24.702;2023-04-15T03:25:17;1.70;;;0.90;;
70576;SDS011;58138;43.138;24.702;2023-04-15T03:27:42;5.03;;;1.50;;
70576;SDS011;58138;43.138;24.702;2023-04-15T03:30:08;7.68;;;4.72;;
70576;SDS011;58138;43.138;24.702;2023-04-15T03:32:34;5.53;;;2.70;;
70576;SDS011;58138;43.138;24.702;2023-04-15T03:35:00;6.80;;;4.03;;
70576;SDS011;58138;43.138;24.702;2023-04-15T03:37:25;5.03;;;2.67;;
70576;SDS011;58138;43.138;24.702;2023-04-15T03:39:51;5.13;;;3.42;;
70576;SDS011;58138;43.138;24.702;2023-04-15T03:42:17;7.70;;;3.78;;
70576;SDS011;58138;43.138;24.702;2023-04-15T03:44:42;11.00;;;3.88;;
70576;SDS011;58138;43.138;24.702;2023-04-15T03:47:08;8.70;;;3.83;;
70576;SDS011;58138;43.138;24.702;2023-04-15T03:49:33;10.55;;;5.80;;
70576;SDS011;58138;43.138;24.702;2023-04-15T03:52:00;11.88;;;5.43;;
70576;SDS011;58138;43.138;24.702;2023-04-15T03:54:25;7.43;;;4.38;;
70576;SDS011;58138;43.138;24.702;2023-04-15T03:56:51;11.13;;;4.85;;
70576;SDS011;58138;43.138;24.702;2023-04-15T03:59:16;9.02;;;4.80;;
70576;SDS011;58138;43.138;24.702;2023-04-15T04:01:42;10.95;;;5.40;;
70576;SDS011;58138;43.138;24.702;2023-04-15T04:04:07;7.43;;;4.82;;
70576;SDS011;58138;43.138;24.702;2023-04-15T04:06:33;11.15;;;4.65;;
70576;SDS011;58138;43.138;24.702;2023-04-15T04:08:59;13.23;;;6.18;;
70576;SDS011;58138;43.138;24.702;2023-04-15T04:11:25;11.20;;;6.03;;
70576;SDS011;58138;43.138;24.702;2023-04-15T04:13:52;9.63;;;5.50;;
70576;SDS011;58138;43.138;24.702;2023-04-15T04:16:18;12.43;;;6.10;;
70576;SDS011;58138;43.138;24.702;2023-04-15T04:18:43;8.98;;;4.75;;
70576;SDS011;58138;43.138;24.702;2023-04-15T04:21:09;11.80;;;5.38;;
70576;SDS011;58138;43.138;24.702;2023-04-15T04:23:35;7.22;;;4.97;;
70576;SDS011;58138;43.138;24.702;2023-04-15T04:26:01;11.05;;;4.78;;
70576;SDS011;58138;43.138;24.702;2023-04-15T04:28:26;8.73;;;5.57;;
70576;SDS011;58138;43.138;24.702;2023-04-15T04:30:52;7.63;;;5.03;;
70576;SDS011;58138;43.138;24.702;2023-04-15T04:33:17;10.02;;;4.97;;
70576;SDS011;58138;43.138;24.702;2023-04-15T04:35:43;9.70;;;6.25;;
70576;SDS011;58138;43.138;24.702;2023-04-15T04:38:09;11.65;;;6.80;;
70576;SDS011;58138;43.138;24.702;2023-04-15T04:40:35;7.35;;;3.47;;
70576;SDS011;58138;43.138;24.702;2023-04-15T04:43:00;8.00;;;4.70;;
70576;SDS011;58138;43.138;24.702;2023-04-15T04:45:26;24.52;;;14.05;;
70576;SDS011;58138;43.138;24.702;2023-04-15T04:47:52;11.68;;;6.10;;
70576;SDS011;58138;43.138;24.702;2023-04-15T04:50:17;11.15;;;5.82;;
70576;SDS011;58138;43.138;24.702;2023-04-15T04:52:43;9.90;;;5.43;;
70576;SDS011;58138;43.138;24.702;2023-04-15T04:55:08;21.27;;;12.07;;
70576;SDS011;58138;43.138;24.702;2023-04-15T04:57:34;6.35;;;3.28;;
70576;SDS011;58138;43.138;24.702;2023-04-15T05:00:00;2.42;;;1.40;;
70576;SDS011;58138;43.138;24.702;2023-04-15T05:02:28;6.00;;;1.90;;
70576;SDS011;58138;43.138;24.702;2023-04-15T05:04:54;3.67;;;2.42;;
70576;SDS011;58138;43.138;24.702;2023-04-15T05:07:19;5.00;;;3.10;;
70576;SDS011;58138;43.138;24.702;2023-04-15T05:09:45;8.02;;;2.85;;
70576;SDS011;58138;43.138;24.702;2023-04-15T05:12:11;5.40;;;3.10;;
70576;SDS011;58138;43.138;24.702;2023-04-15T05:14:39;8.40;;;4.20;;
70576;SDS011;58138;43.138;24.702;2023-04-15T05:17:06;8.90;;;4.63;;
70576;SDS011;58138;43.138;24.702;2023-04-15T05:19:32;16.67;;;8.35;;
70576;SDS011;58138;43.138;24.702;2023-04-15T05:21:57;9.25;;;4.50;;
70576;SDS011;58138;43.138;24.702;2023-04-15T05:24:23;6.32;;;4.15;;
70576;SDS011;58138;43.138;24.702;2023-04-15T05:26:49;6.68;;;4.57;;
70576;SDS011;58138;43.138;24.702;2023-04-15T05:29:15;5.65;;;4.13;;
70576;SDS011;58138;43.138;24.702;2023-04-15T05:31:40;6.32;;;3.90;;
70576;SDS011;58138;43.138;24.702;2023-04-15T05:34:06;8.10;;;4.93;;
70576;SDS011;58138;43.138;24.702;2023-04-15T05:36:32;18.05;;;10.20;;
70576;SDS011;58138;43.138;24.702;2023-04-15T05:38:58;10.07;;;6.80;;
70576;SDS011;58138;43.138;24.702;2023-04-15T05:41:23;11.30;;;5.68;;
70576;SDS011;58138;43.138;24.702;2023-04-15T05:43:49;9.32;;;5.38;;
70576;SDS011;58138;43.138;24.702;2023-04-15T05:46:15;6.70;;;4.50;;
70576;SDS011;58138;43.138;24.702;2023-04-15T05:48:41;14.50;;;6.25;;
70576;SDS011;58138;43.138;24.702;2023-04-15T05:51:06;9.27;;;4.38;;
70576;SDS011;58138;43.138;24.702;2023-04-15T05:53:32;8.02;;;4.45;;
70576;SDS011;58138;43.138;24.702;2023-04-15T05:55:57;6.18;;;3.70;;
70576;SDS011;58138;43.138;24.702;2023-04-15T05:58:23;10.48;;;3.70;;
70576;SDS011;58138;43.138;24.702;2023-04-15T06:00:49;10.35;;;4.10;;
70576;SDS011;58138;43.138;24.702;2023-04-15T06:03:15;9.43;;;5.30;;
70576;SDS011;58138;43.138;24.702;2023-04-15T06:05:42;5.95;;;3.97;;
70576;SDS011;58138;43.138;24.702;2023-04-15T06:08:08;7.55;;;3.45;;
70576;SDS011;58138;43.138;24.702;2023-04-15T06:10:34;6.65;;;3.47;;
70576;SDS011;58138;43.138;24.702;2023-04-15T06:13:03;6.97;;;3.53;;
70576;SDS011;58138;43.138;24.702;2023-04-15T06:15:29;8.35;;;3.40;;
70576;SDS011;58138;43.138;24.702;2023-04-15T06:17:55;7.82;;;3.50;;
70576;SDS011;58138;43.138;24.702;2023-04-15T06:20:21;7.90;;;3.50;;
70576;SDS011;58138;43.138;24.702;2023-04-15T06:22:46;8.43;;;3.50;;
70576;SDS011;58138;43.138;24.702;2023-04-15T06:25:12;13.75;;;3.38;;
70576;SDS011;58138;43.138;24.702;2023-04-15T06:27:38;12.13;;;4.07;;
70576;SDS011;58138;43.138;24.702;2023-04-15T06:30:04;9.55;;;2.90;;
70576;SDS011;58138;43.138;24.702;2023-04-15T06:32:31;8.02;;;3.75;;
70576;SDS011;58138;43.138;24.702;2023-04-15T06:34:57;8.57;;;3.20;;
70576;SDS011;58138;43.138;24.702;2023-04-15T06:37:22;23.88;;;13.75;;
70576;SDS011;58138;43.138;24.702;2023-04-15T06:39:48;7.30;;;3.47;;
70576;SDS011;58138;43.138;24.702;2023-04-15T06:42:14;5.10;;;2.85;;
70576;SDS011;58138;43.138;24.702;2023-04-15T06:44:39;5.50;;;3.30;;
70576;SDS011;58138;43.138;24.702;2023-04-15T06:47:05;4.45;;;2.50;;
70576;SDS011;58138;43.138;24.702;2023-04-15T06:49:30;5.78;;;2.40;;
70576;SDS011;58138;43.138;24.702;2023-04-15T06:51:56;5.82;;;2.90;;
70576;SDS011;58138;43.138;24.702;2023-04-15T06:54:21;3.55;;;2.40;;
70576;SDS011;58138;43.138;24.702;2023-04-15T06:56:47;5.00;;;2.40;;
70576;SDS011;58138;43.138;24.702;2023-04-15T06:59:13;9.90;;;3.03;;
70576;SDS011;58138;43.138;24.702;2023-04-15T07:01:42;5.00;;;1.90;;
70576;SDS011;58138;43.138;24.702;2023-04-15T07:04:07;2.67;;;1.80;;
70576;SDS011;58138;43.138;24.702;2023-04-15T07:06:33;6.45;;;1.92;;
70576;SDS011;58138;43.138;24.702;2023-04-15T07:08:59;8.07;;;2.55;;
70576;SDS011;58138;43.138;24.702;2023-04-15T07:11:25;2.47;;;1.50;;
70576;SDS011;58138;43.138;24.702;2023-04-15T07:13:51;8.13;;;1.80;;
70576;SDS011;58138;43.138;24.702;2023-04-15T07:16:17;7.28;;;2.00;;
70576;SDS011;58138;43.138;24.702;2023-04-15T07:18:43;6.30;;;2.75;;
70576;SDS011;58138;43.138;24.702;2023-04-15T07:21:08;7.80;;;2.58;;
70576;SDS011;58138;43.138;24.702;2023-04-15T07:23:34;3.30;;;1.65;;
70576;SDS011;58138;43.138;24.702;2023-04-15T07:26:00;3.88;;;2.50;;
70576;SDS011;58138;43.138;24.702;2023-04-15T07:28:25;2.22;;;1.10;;
70576;SDS011;58138;43.138;24.702;2023-04-15T07:30:51;3.60;;;1.30;;
70576;SDS011;58138;43.138;24.702;2023-04-15T07:33:17;7.07;;;1.23;;
70576;SDS011;58138;43.138;24.702;2023-04-15T07:35:43;7.25;;;1.30;;
70576;SDS011;58138;43.138;24.702;2023-04-15T07:38:09;6.65;;;1.42;;
70576;SDS011;58138;43.138;24.702;2023-04-15T07:40:37;2.17;;;1.30;;
70576;SDS011;58138;43.138;24.702;2023-04-15T07:43:03;2.42;;;1.30;;
70576;SDS011;58138;43.138;24.702;2023-04-15T07:45:30;2.22;;;1.00;;
70576;SDS011;58138;43.138;24.702;2023-04-15T07:47:56;4.45;;;1.50;;
70576;SDS011;58138;43.138;24.702;2023-04-15T07:50:21;3.55;;;1.30;;
70576;SDS011;58138;43.138;24.702;2023-04-15T07:52:48;4.72;;;1.35;;
70576;SDS011;58138;43.138;24.702;2023-04-15T07:55:13;2.45;;;1.30;;
70576;SDS011;58138;43.138;24.702;2023-04-15T07:57:41;2.92;;;1.45;;
70576;SDS011;58138;43.138;24.702;2023-04-15T08:00:07;6.55;;;1.48;;
70576;SDS011;58138;43.138;24.702;2023-04-15T08:02:33;3.83;;;1.83;;
70576;SDS011;58138;43.138;24.702;2023-04-15T08:04:59;10.80;;;1.80;;
70576;SDS011;58138;43.138;24.702;2023-04-15T08:07:27;4.32;;;1.95;;
70576;SDS011;58138;43.138;24.702;2023-04-15T08:09:52;3.78;;;0.90;;
70576;SDS011;58138;43.138;24.702;2023-04-15T08:12:18;7.30;;;1.30;;
70576;SDS011;58138;43.138;24.702;2023-04-15T08:14:43;3.75;;;1.17;;
70576;SDS011;58138;43.138;24.702;2023-04-15T08:17:09;7.85;;;3.10;;
70576;SDS011;58138;43.138;24.702;2023-04-15T08:19:34;2.25;;;1.13;;
70576;SDS011;58138;43.138;24.702;2023-04-15T08:22:00;5.57;;;1.30;;
70576;SDS011;58138;43.138;24.702;2023-04-15T08:24:26;3.88;;;1.30;;
70576;SDS011;58138;43.138;24.702;2023-04-15T08:26:52;3.72;;;1.30;;
70576;SDS011;58138;43.138;24.702;2023-04-15T08:29:17;5.75;;;1.30;;
70576;SDS011;58138;43.138;24.702;2023-04-15T08:31:43;3.50;;;1.27;;
70576;SDS011;58138;43.138;24.702;2023-04-15T08:34:12;3.45;;;1.20;;
70576;SDS011;58138;43.138;24.702;2023-04-15T08:36:38;2.95;;;1.05;;
70576;SDS011;58138;43.138;24.702;2023-04-15T08:39:03;2.25;;;1.02;;
70576;SDS011;58138;43.138;24.702;2023-04-15T08:41:33;3.72;;;1.30;;
70576;SDS011;58138;43.138;24.702;2023-04-15T08:44:04;2.67;;;1.10;;
70576;SDS011;58138;43.138;24.702;2023-04-15T08:46:31;4.38;;;1.13;;
70576;SDS011;58138;43.138;24.702;2023-04-15T08:48:58;6.15;;;1.08;;
70576;SDS011;58138;43.138;24.702;2023-04-15T08:51:25;2.25;;;0.82;;
70576;SDS011;58138;43.138;24.702;2023-04-15T08:53:51;2.55;;;1.02;;
70576;SDS011;58138;43.138;24.702;2023-04-15T08:56:17;4.13;;;1.20;;
70576;SDS011;58138;43.138;24.702;2023-04-15T08:58:43;4.13;;;1.13;;
70576;SDS011;58138;43.138;24.702;2023-04-15T09:01:12;7.22;;;1.17;;
70576;SDS011;58138;43.138;24.702;2023-04-15T09:03:38;8.70;;;1.42;;
70576;SDS011;58138;43.138;24.702;2023-04-15T09:06:04;16.00;;;2.25;;
70576;SDS011;58138;43.138;24.702;2023-04-15T09:08:31;6.38;;;2.13;;
70576;SDS011;58138;43.138;24.702;2023-04-15T09:10:58;7.35;;;1.52;;
70576;SDS011;58138;43.138;24.702;2023-04-15T09:13:24;18.45;;;2.15;;
70576;SDS011;58138;43.138;24.702;2023-04-15T09:15:50;6.93;;;1.67;;
70576;SDS011;58138;43.138;24.702;2023-04-15T09:18:26;7.07;;;1.23;;
70576;SDS011;58138;43.138;24.702;2023-04-15T09:20:55;4.68;;;1.33;;
70576;SDS011;58138;43.138;24.702;2023-04-15T09:23:21;20.95;;;17.17;;
70576;SDS011;58138;43.138;24.702;2023-04-15T09:25:47;11.15;;;1.33;;
70576;SDS011;58138;43.138;24.702;2023-04-15T09:28:13;3.97;;;1.50;;
70576;SDS011;58138;43.138;24.702;2023-04-15T09:30:41;3.95;;;1.00;;
70576;SDS011;58138;43.138;24.702;2023-04-15T09:33:10;4.87;;;1.03;;
70576;SDS011;58138;43.138;24.702;2023-04-15T09:35:38;3.50;;;1.00;;
70576;SDS011;58138;43.138;24.702;2023-04-15T09:38:08;5.28;;;1.02;;
70576;SDS011;58138;43.138;24.702;2023-04-15T09:40:35;4.65;;;1.60;;
70576;SDS011;58138;43.138;24.702;2023-04-15T09:43:04;2.08;;;0.90;;
70576;SDS011;58138;43.138;24.702;2023-04-15T09:45:31;11.55;;;1.58;;
70576;SDS011;58138;43.138;24.702;2023-04-15T09:47:59;5.07;;;1.98;;
70576;SDS011;58138;43.138;24.702;2023-04-15T09:53:08;3.85;;;1.10;;
70576;SDS011;58138;43.138;24.702;2023-04-15T09:55:34;5.20;;;1.10;;
70576;SDS011;58138;43.138;24.702;2023-04-15T09:58:00;4.32;;;1.05;;
70576;SDS011;58138;43.138;24.702;2023-04-15T10:00:26;4.78;;;1.15;;
70576;SDS011;58138;43.138;24.702;2023-04-15T10:02:53;2.92;;;0.93;;
70576;SDS011;58138;43.138;24.702;2023-04-15T10:05:18;2.83;;;1.20;;
70576;SDS011;58138;43.138;24.702;2023-04-15T10:07:45;2.45;;;1.00;;
70576;SDS011;58138;43.138;24.702;2023-04-15T10:10:10;5.93;;;1.10;;
70576;SDS011;58138;43.138;24.702;2023-04-15T10:12:37;3.60;;;1.10;;
70576;SDS011;58138;43.138;24.702;2023-04-15T10:15:05;9.77;;;1.42;;
70576;SDS011;58138;43.138;24.702;2023-04-15T10:17:33;5.25;;;1.38;;
70576;SDS011;58138;43.138;24.702;2023-04-15T10:20:02;6.90;;;1.80;;
70576;SDS011;58138;43.138;24.702;2023-04-15T10:22:29;5.53;;;1.75;;
70576;SDS011;58138;43.138;24.702;2023-04-15T10:24:55;4.28;;;1.40;;
70576;SDS011;58138;43.138;24.702;2023-04-15T10:27:21;5.60;;;1.40;;
70576;SDS011;58138;43.138;24.702;2023-04-15T10:29:48;3.63;;;1.45;;
70576;SDS011;58138;43.138;24.702;2023-04-15T10:32:14;2.38;;;1.25;;
70576;SDS011;58138;43.138;24.702;2023-04-15T10:34:43;18.50;;;2.00;;
70576;SDS011;58138;43.138;24.702;2023-04-15T10:37:10;1.77;;;1.02;;
70576;SDS011;58138;43.138;24.702;2023-04-15T10:44:37;7.63;;;1.20;;
70576;SDS011;58138;43.138;24.702;2023-04-15T10:47:11;3.88;;;1.00;;
70576;SDS011;58138;43.138;24.702;2023-04-15T10:52:14;5.30;;;1.48;;
70576;SDS011;58138;43.138;24.702;2023-04-15T10:54:41;2.83;;;1.35;;
70576;SDS011;58138;43.138;24.702;2023-04-15T11:02:38;8.65;;;3.10;;
70576;SDS011;58138;43.138;24.702;2023-04-15T11:05:16;3.43;;;1.87;;
70576;SDS011;58138;43.138;24.702;2023-04-15T11:12:56;5.43;;;2.63;;
70576;SDS011;58138;43.138;24.702;2023-04-15T11:15:27;3.08;;;1.60;;
70576;SDS011;58138;43.138;24.702;2023-04-15T11:20:37;1.90;;;1.10;;
70576;SDS011;58138;43.138;24.702;2023-04-15T11:23:04;3.75;;;1.45;;
70576;SDS011;58138;43.138;24.702;2023-04-15T11:25:31;4.15;;;1.48;;
70576;SDS011;58138;43.138;24.702;2023-04-15T11:27:58;3.50;;;1.20;;
70576;SDS011;58138;43.138;24.702;2023-04-15T11:30:26;3.17;;;1.27;;
70576;SDS011;58138;43.138;24.702;2023-04-15T11:33:00;7.70;;;1.50;;
70576;SDS011;58138;43.138;24.702;2023-04-15T11:35:27;6.13;;;1.50;;
70576;SDS011;58138;43.138;24.702;2023-04-15T11:37:53;4.65;;;1.50;;
70576;SDS011;58138;43.138;24.702;2023-04-15T11:40:23;4.45;;;1.20;;
70576;SDS011;58138;43.138;24.702;2023-04-15T11:45:48;5.43;;;1.05;;
70576;SDS011;58138;43.138;24.702;2023-04-15T11:50:53;3.55;;;1.30;;
70576;SDS011;58138;43.138;24.702;2023-04-15T11:53:23;27.00;;;3.45;;
70576;SDS011;58138;43.138;24.702;2023-04-15T11:55:50;8.07;;;2.13;;
70576;SDS011;58138;43.138;24.702;2023-04-15T12:00:53;5.28;;;1.40;;
70576;SDS011;58138;43.138;24.702;2023-04-15T12:13:52;4.20;;;1.17;;
70576;SDS011;58138;43.138;24.702;2023-04-15T12:16:21;3.45;;;1.33;;
70576;SDS011;58138;43.138;24.702;2023-04-15T12:18:51;7.13;;;1.20;;
70576;SDS011;58138;43.138;24.702;2023-04-15T12:21:18;3.88;;;1.15;;
70576;SDS011;58138;43.138;24.702;2023-04-15T12:23:48;7.38;;;2.55;;
70576;SDS011;58138;43.138;24.702;2023-04-15T12:26:17;3.80;;;2.53;;
70576;SDS011;58138;43.138;24.702;2023-04-15T12:28:43;2.67;;;1.30;;
70576;SDS011;58138;43.138;24.702;2023-04-15T12:31:09;2.45;;;1.02;;
70576;SDS011;58138;43.138;24.702;2023-04-15T12:33:35;11.68;;;1.73;;
70576;SDS011;58138;43.138;24.702;2023-04-15T12:36:01;3.22;;;1.05;;
70576;SDS011;58138;43.138;24.702;2023-04-15T12:38:27;3.78;;;1.00;;
70576;SDS011;58138;43.138;24.702;2023-04-15T12:40:53;4.05;;;1.00;;
70576;SDS011;58138;43.138;24.702;2023-04-15T12:43:19;3.38;;;1.30;;
70576;SDS011;58138;43.138;24.702;2023-04-15T12:45:44;3.70;;;1.10;;
70576;SDS011;58138;43.138;24.702;2023-04-15T12:48:10;6.55;;;1.10;;
70576;SDS011;58138;43.138;24.702;2023-04-15T12:50:36;4.47;;;0.90;;
70576;SDS011;58138;43.138;24.702;2023-04-15T12:53:01;4.00;;;1.00;;
70576;SDS011;58138;43.138;24.702;2023-04-15T12:55:27;4.55;;;1.17;;
70576;SDS011;58138;43.138;24.702;2023-04-15T12:57:55;4.32;;;1.05;;
70576;SDS011;58138;43.138;24.702;2023-04-15T13:00:21;14.57;;;1.30;;
70576;SDS011;58138;43.138;24.702;2023-04-15T13:02:47;7.68;;;1.20;;
70576;SDS011;58138;43.138;24.702;2023-04-15T13:05:13;5.78;;;1.10;;
70576;SDS011;58138;43.138;24.702;2023-04-15T13:07:39;4.03;;;1.33;;
70576;SDS011;58138;43.138;24.702;2023-04-15T13:10:06;5.15;;;1.33;;
70576;SDS011;58138;43.138;24.702;2023-04-15T13:12:32;3.13;;;1.52;;
70576;SDS011;58138;43.138;24.702;2023-04-15T13:15:00;7.57;;;1.95;;
70576;SDS011;58138;43.138;24.702;2023-04-15T13:17:26;3.47;;;1.73;;
70576;SDS011;58138;43.138;24.702;2023-04-15T13:19:52;4.25;;;1.33;;
70576;SDS011;58138;43.138;24.702;2023-04-15T13:22:18;3.40;;;1.23;;
70576;SDS011;58138;43.138;24.702;2023-04-15T13:24:43;7.72;;;1.40;;
70576;SDS011;58138;43.138;24.702;2023-04-15T13:27:09;4.50;;;1.20;;
70576;SDS011;58138;43.138;24.702;2023-04-15T13:29:35;4.25;;;1.00;;
70576;SDS011;58138;43.138;24.702;2023-04-15T13:32:00;4.28;;;1.15;;
70576;SDS011;58138;43.138;24.702;2023-04-15T13:34:26;6.05;;;0.95;;
70576;SDS011;58138;43.138;24.702;2023-04-15T13:36:51;7.18;;;1.08;;
70576;SDS011;58138;43.138;24.702;2023-04-15T13:39:17;4.53;;;2.10;;
70576;SDS011;58138;43.138;24.702;2023-04-15T13:41:42;3.65;;;1.10;;
70576;SDS011;58138;43.138;24.702;2023-04-15T13:44:08;3.80;;;1.30;;
70576;SDS011;58138;43.138;24.702;2023-04-15T13:46:34;2.53;;;1.17;;
70576;SDS011;58138;43.138;24.702;2023-04-15T13:48:59;2.40;;;1.23;;
70576;SDS011;58138;43.138;24.702;2023-04-15T13:51:25;3.25;;;1.25;;
70576;SDS011;58138;43.138;24.702;2023-04-15T13:53:51;8.07;;;1.63;;
70576;SDS011;58138;43.138;24.702;2023-04-15T13:56:16;4.82;;;1.10;;
70576;SDS011;58138;43.138;24.702;2023-04-15T13:58:42;3.53;;;1.40;;
70576;SDS011;58138;43.138;24.702;2023-04-15T14:01:07;3.22;;;1.20;;
70576;SDS011;58138;43.138;24.702;2023-04-15T14:03:33;6.30;;;1.73;;
70576;SDS011;58138;43.138;24.702;2023-04-15T14:06:00;8.52;;;1.30;;
70576;SDS011;58138;43.138;24.702;2023-04-15T14:08:25;8.15;;;2.10;;
70576;SDS011;58138;43.138;24.702;2023-04-15T14:10:51;4.70;;;1.33;;
70576;SDS011;58138;43.138;24.702;2023-04-15T14:13:17;1.83;;;1.10;;
70576;SDS011;58138;43.138;24.702;2023-04-15T14:15:43;4.63;;;1.20;;
70576;SDS011;58138;43.138;24.702;2023-04-15T14:18:09;5.15;;;1.30;;
70576;SDS011;58138;43.138;24.702;2023-04-15T14:20:35;1.73;;;1.20;;
70576;SDS011;58138;43.138;24.702;2023-04-15T14:23:00;4.03;;;1.50;;
70576;SDS011;58138;43.138;24.702;2023-04-15T14:25:26;2.83;;;1.15;;
70576;SDS011;58138;43.138;24.702;2023-04-15T14:27:52;4.85;;;1.30;;
70576;SDS011;58138;43.138;24.702;2023-04-15T14:30:17;3.95;;;1.45;;
70576;SDS011;58138;43.138;24.702;2023-04-15T14:32:43;5.50;;;1.40;;
70576;SDS011;58138;43.138;24.702;2023-04-15T14:35:09;4.07;;;1.15;;
70576;SDS011;58138;43.138;24.702;2023-04-15T14:37:35;4.70;;;1.20;;
70576;SDS011;58138;43.138;24.702;2023-04-15T14:40:00;5.13;;;1.40;;
70576;SDS011;58138;43.138;24.702;2023-04-15T14:42:26;6.72;;;1.30;;
70576;SDS011;58138;43.138;24.702;2023-04-15T14:44:51;7.65;;;1.73;;
70576;SDS011;58138;43.138;24.702;2023-04-15T14:47:17;3.75;;;1.40;;
70576;SDS011;58138;43.138;24.702;2023-04-15T14:49:46;4.68;;;1.50;;
70576;SDS011;58138;43.138;24.702;2023-04-15T14:52:12;4.00;;;1.30;;
70576;SDS011;58138;43.138;24.702;2023-04-15T14:54:37;3.92;;;1.60;;
70576;SDS011;58138;43.138;24.702;2023-04-15T14:57:03;6.63;;;1.40;;
70576;SDS011;58138;43.138;24.702;2023-04-15T14:59:29;2.65;;;1.30;;
70576;SDS011;58138;43.138;24.702;2023-04-15T15:01:55;7.18;;;1.27;;
70576;SDS011;58138;43.138;24.702;2023-04-15T15:04:20;3.45;;;1.30;;
70576;SDS011;58138;43.138;24.702;2023-04-15T15:09:21;5.20;;;1.35;;